sensor_id;sensor_type;location;lat;lon;timestamp;P1;durP1;ratioP1;P2;durP2;ratioP2
26634;SDS011;14490;54.208;37.686;2023-08-08T00:02:24;5.45;;;2.88;;
26634;SDS011;14490;54.208;37.686;2023-08-08T00:04:52;10.27;;;2.90;;
26634;SDS011;14490;54.208;37.686;2023-08-08T00:07:19;2.80;;;2.40;;
26634;SDS011;14490;54.208;37.686;2023-08-08T00:09:47;2.50;;;1.92;;
26634;SDS011;14490;54.208;37.686;2023-08-08T00:12:14;3.33;;;2.00;;
26634;SDS011;14490;54.208;37.686;2023-08-08T00:14:41;5.15;;;2.10;;
26634;SDS011;14490;54.208;37.686;2023-08-08T00:17:08;7.82;;;2.35;;
26634;SDS011;14490;54.208;37.686;2023-08-08T00:19:37;4.07;;;2.03;;
26634;SDS011;14490;54.208;37.686;2023-08-08T00:22:04;3.70;;;2.53;;
26634;SDS011;14490;54.208;37.686;2023-08-08T00:24:32;3.35;;;1.92;;
26634;SDS011;14490;54.208;37.686;2023-08-08T00:26:59;2.95;;;2.25;;
26634;SDS011;14490;54.208;37.686;2023-08-08T00:29:27;2.65;;;2.13;;
26634;SDS011;14490;54.208;37.686;2023-08-08T00:31:54;2.97;;;2.20;;
26634;SDS011;14490;54.208;37.686;2023-08-08T00:34:21;5.40;;;2.10;;
26634;SDS011;14490;54.208;37.686;2023-08-08T00:36:50;4.25;;;2.22;;
26634;SDS011;14490;54.208;37.686;2023-08-08T00:39:17;3.13;;;2.55;;
26634;SDS011;14490;54.208;37.686;2023-08-08T00:41:43;2.70;;;2.50;;
26634;SDS011;14490;54.208;37.686;2023-08-08T00:44:11;4.28;;;1.85;;
26634;SDS011;14490;54.208;37.686;2023-08-08T00:46:38;5.57;;;2.47;;
26634;SDS011;14490;54.208;37.686;2023-08-08T00:49:06;2.80;;;2.10;;
26634;SDS011;14490;54.208;37.686;2023-08-08T00:51:33;3.00;;;2.17;;
26634;SDS011;14490;54.208;37.686;2023-08-08T00:54:02;6.80;;;2.58;;
26634;SDS011;14490;54.208;37.686;2023-08-08T00:56:31;4.20;;;2.50;;
26634;SDS011;14490;54.208;37.686;2023-08-08T00:58:58;2.40;;;1.98;;
26634;SDS011;14490;54.208;37.686;2023-08-08T01:01:26;3.40;;;2.10;;
26634;SDS011;14490;54.208;37.686;2023-08-08T01:03:53;2.60;;;2.25;;
26634;SDS011;14490;54.208;37.686;2023-08-08T01:06:23;3.60;;;2.03;;
26634;SDS011;14490;54.208;37.686;2023-08-08T01:08:57;5.70;;;2.38;;
26634;SDS011;14490;54.208;37.686;2023-08-08T01:11:31;6.22;;;2.15;;
26634;SDS011;14490;54.208;37.686;2023-08-08T01:14:01;3.58;;;2.10;;
26634;SDS011;14490;54.208;37.686;2023-08-08T01:16:30;4.72;;;2.00;;
26634;SDS011;14490;54.208;37.686;2023-08-08T01:18:58;3.42;;;1.98;;
26634;SDS011;14490;54.208;37.686;2023-08-08T01:21:25;7.55;;;2.60;;
26634;SDS011;14490;54.208;37.686;2023-08-08T01:23:56;2.90;;;2.00;;
26634;SDS011;14490;54.208;37.686;2023-08-08T01:26:39;6.75;;;2.22;;
26634;SDS011;14490;54.208;37.686;2023-08-08T01:29:07;6.20;;;2.45;;
26634;SDS011;14490;54.208;37.686;2023-08-08T01:31:34;6.30;;;2.05;;
26634;SDS011;14490;54.208;37.686;2023-08-08T01:34:01;6.93;;;2.10;;
26634;SDS011;14490;54.208;37.686;2023-08-08T01:36:30;4.55;;;2.35;;
26634;SDS011;14490;54.208;37.686;2023-08-08T01:39:03;3.95;;;2.67;;
26634;SDS011;14490;54.208;37.686;2023-08-08T01:41:37;6.15;;;2.20;;
26634;SDS011;14490;54.208;37.686;2023-08-08T01:44:06;4.20;;;2.30;;
26634;SDS011;14490;54.208;37.686;2023-08-08T01:46:34;3.38;;;2.33;;
26634;SDS011;14490;54.208;37.686;2023-08-08T01:49:03;8.95;;;2.70;;
26634;SDS011;14490;54.208;37.686;2023-08-08T01:51:31;8.43;;;2.50;;
26634;SDS011;14490;54.208;37.686;2023-08-08T01:53:58;3.65;;;2.08;;
26634;SDS011;14490;54.208;37.686;2023-08-08T01:56:25;4.72;;;2.80;;
26634;SDS011;14490;54.208;37.686;2023-08-08T01:58:54;5.30;;;2.92;;
26634;SDS011;14490;54.208;37.686;2023-08-08T02:01:21;4.53;;;3.00;;
26634;SDS011;14490;54.208;37.686;2023-08-08T02:03:49;6.82;;;2.70;;
26634;SDS011;14490;54.208;37.686;2023-08-08T02:06:16;5.25;;;2.67;;
26634;SDS011;14490;54.208;37.686;2023-08-08T02:08:44;4.50;;;2.55;;
26634;SDS011;14490;54.208;37.686;2023-08-08T02:11:11;4.13;;;2.55;;
26634;SDS011;14490;54.208;37.686;2023-08-08T02:13:39;8.48;;;3.10;;
26634;SDS011;14490;54.208;37.686;2023-08-08T02:16:07;6.25;;;2.67;;
26634;SDS011;14490;54.208;37.686;2023-08-08T02:18:35;5.20;;;2.97;;
26634;SDS011;14490;54.208;37.686;2023-08-08T02:21:05;6.37;;;3.40;;
26634;SDS011;14490;54.208;37.686;2023-08-08T02:23:33;7.32;;;3.03;;
26634;SDS011;14490;54.208;37.686;2023-08-08T02:26:00;5.82;;;3.05;;
26634;SDS011;14490;54.208;37.686;2023-08-08T02:28:30;6.38;;;3.40;;
26634;SDS011;14490;54.208;37.686;2023-08-08T02:30:57;5.57;;;3.20;;
26634;SDS011;14490;54.208;37.686;2023-08-08T02:33:27;6.97;;;4.45;;
26634;SDS011;14490;54.208;37.686;2023-08-08T02:35:54;7.25;;;4.28;;
26634;SDS011;14490;54.208;37.686;2023-08-08T02:38:21;6.78;;;4.10;;
26634;SDS011;14490;54.208;37.686;2023-08-08T02:40:49;8.52;;;4.75;;
26634;SDS011;14490;54.208;37.686;2023-08-08T02:43:16;6.60;;;3.58;;
26634;SDS011;14490;54.208;37.686;2023-08-08T02:45:43;10.95;;;5.57;;
26634;SDS011;14490;54.208;37.686;2023-08-08T02:48:11;8.70;;;4.63;;
26634;SDS011;14490;54.208;37.686;2023-08-08T02:50:40;10.18;;;4.82;;
26634;SDS011;14490;54.208;37.686;2023-08-08T02:53:07;5.25;;;3.65;;
26634;SDS011;14490;54.208;37.686;2023-08-08T02:55:35;8.82;;;4.78;;
26634;SDS011;14490;54.208;37.686;2023-08-08T02:58:03;7.93;;;4.50;;
26634;SDS011;14490;54.208;37.686;2023-08-08T03:00:30;12.90;;;6.03;;
26634;SDS011;14490;54.208;37.686;2023-08-08T03:02:58;7.85;;;4.68;;
26634;SDS011;14490;54.208;37.686;2023-08-08T03:05:25;6.30;;;5.10;;
26634;SDS011;14490;54.208;37.686;2023-08-08T03:07:54;12.02;;;5.28;;
26634;SDS011;14490;54.208;37.686;2023-08-08T03:10:21;5.90;;;3.72;;
26634;SDS011;14490;54.208;37.686;2023-08-08T03:12:51;10.70;;;3.40;;
26634;SDS011;14490;54.208;37.686;2023-08-08T03:15:18;7.70;;;4.53;;
26634;SDS011;14490;54.208;37.686;2023-08-08T03:17:46;12.15;;;6.15;;
26634;SDS011;14490;54.208;37.686;2023-08-08T03:20:13;6.88;;;5.20;;
26634;SDS011;14490;54.208;37.686;2023-08-08T03:22:41;10.90;;;4.97;;
26634;SDS011;14490;54.208;37.686;2023-08-08T03:25:10;10.60;;;5.10;;
26634;SDS011;14490;54.208;37.686;2023-08-08T03:27:37;5.47;;;3.85;;
26634;SDS011;14490;54.208;37.686;2023-08-08T03:30:05;12.45;;;5.60;;
26634;SDS011;14490;54.208;37.686;2023-08-08T03:32:33;9.15;;;4.70;;
26634;SDS011;14490;54.208;37.686;2023-08-08T03:35:01;13.57;;;4.97;;
26634;SDS011;14490;54.208;37.686;2023-08-08T03:37:29;9.07;;;4.50;;
26634;SDS011;14490;54.208;37.686;2023-08-08T03:39:56;12.32;;;4.45;;
26634;SDS011;14490;54.208;37.686;2023-08-08T03:42:25;5.95;;;3.25;;
26634;SDS011;14490;54.208;37.686;2023-08-08T03:44:53;6.13;;;3.55;;
26634;SDS011;14490;54.208;37.686;2023-08-08T03:47:20;7.10;;;3.20;;
26634;SDS011;14490;54.208;37.686;2023-08-08T03:49:48;7.47;;;4.35;;
26634;SDS011;14490;54.208;37.686;2023-08-08T03:52:15;11.10;;;5.38;;
26634;SDS011;14490;54.208;37.686;2023-08-08T03:54:43;5.72;;;3.47;;
26634;SDS011;14490;54.208;37.686;2023-08-08T03:57:10;13.50;;;6.20;;
26634;SDS011;14490;54.208;37.686;2023-08-08T03:59:39;7.82;;;4.70;;
26634;SDS011;14490;54.208;37.686;2023-08-08T04:02:06;11.45;;;4.03;;
26634;SDS011;14490;54.208;37.686;2023-08-08T04:04:34;10.50;;;4.68;;
26634;SDS011;14490;54.208;37.686;2023-08-08T04:07:01;11.10;;;4.65;;
26634;SDS011;14490;54.208;37.686;2023-08-08T04:09:29;6.65;;;3.75;;
26634;SDS011;14490;54.208;37.686;2023-08-08T04:11:56;11.77;;;4.05;;
26634;SDS011;14490;54.208;37.686;2023-08-08T04:14:23;9.90;;;4.20;;
26634;SDS011;14490;54.208;37.686;2023-08-08T04:16:52;6.47;;;3.45;;
26634;SDS011;14490;54.208;37.686;2023-08-08T04:19:19;14.35;;;3.70;;
26634;SDS011;14490;54.208;37.686;2023-08-08T04:21:48;6.75;;;3.10;;
26634;SDS011;14490;54.208;37.686;2023-08-08T04:24:15;6.30;;;4.03;;
26634;SDS011;14490;54.208;37.686;2023-08-08T04:26:43;15.38;;;4.45;;
26634;SDS011;14490;54.208;37.686;2023-08-08T04:29:10;8.75;;;4.10;;
26634;SDS011;14490;54.208;37.686;2023-08-08T04:31:37;16.38;;;4.45;;
26634;SDS011;14490;54.208;37.686;2023-08-08T04:34:06;9.27;;;4.82;;
26634;SDS011;14490;54.208;37.686;2023-08-08T04:36:33;9.00;;;4.15;;
26634;SDS011;14490;54.208;37.686;2023-08-08T04:39:00;10.77;;;4.75;;
26634;SDS011;14490;54.208;37.686;2023-08-08T04:41:28;8.98;;;4.43;;
26634;SDS011;14490;54.208;37.686;2023-08-08T04:43:55;11.63;;;4.10;;
26634;SDS011;14490;54.208;37.686;2023-08-08T04:46:23;11.45;;;3.83;;
26634;SDS011;14490;54.208;37.686;2023-08-08T04:48:50;7.72;;;4.03;;
26634;SDS011;14490;54.208;37.686;2023-08-08T04:51:19;15.88;;;4.32;;
26634;SDS011;14490;54.208;37.686;2023-08-08T04:53:49;9.25;;;4.28;;
26634;SDS011;14490;54.208;37.686;2023-08-08T04:56:16;9.60;;;4.30;;
26634;SDS011;14490;54.208;37.686;2023-08-08T04:58:44;6.40;;;3.95;;
26634;SDS011;14490;54.208;37.686;2023-08-08T05:01:14;9.75;;;3.40;;
26634;SDS011;14490;54.208;37.686;2023-08-08T05:03:43;6.47;;;3.25;;
26634;SDS011;14490;54.208;37.686;2023-08-08T05:06:10;8.15;;;3.60;;
26634;SDS011;14490;54.208;37.686;2023-08-08T05:08:39;10.00;;;3.85;;
26634;SDS011;14490;54.208;37.686;2023-08-08T05:11:06;10.65;;;4.63;;
26634;SDS011;14490;54.208;37.686;2023-08-08T05:13:33;7.40;;;4.25;;
26634;SDS011;14490;54.208;37.686;2023-08-08T05:16:01;5.85;;;3.15;;
26634;SDS011;14490;54.208;37.686;2023-08-08T05:18:28;6.05;;;4.05;;
26634;SDS011;14490;54.208;37.686;2023-08-08T05:20:58;6.47;;;3.50;;
26634;SDS011;14490;54.208;37.686;2023-08-08T05:23:28;5.05;;;3.97;;
26634;SDS011;14490;54.208;37.686;2023-08-08T05:25:57;4.95;;;3.00;;
26634;SDS011;14490;54.208;37.686;2023-08-08T05:28:24;13.32;;;4.43;;
26634;SDS011;14490;54.208;37.686;2023-08-08T05:30:53;5.90;;;3.90;;
26634;SDS011;14490;54.208;37.686;2023-08-08T05:33:21;10.68;;;4.32;;
26634;SDS011;14490;54.208;37.686;2023-08-08T05:35:49;10.02;;;5.28;;
26634;SDS011;14490;54.208;37.686;2023-08-08T05:38:16;6.18;;;4.95;;
26634;SDS011;14490;54.208;37.686;2023-08-08T05:40:43;8.85;;;5.10;;
26634;SDS011;14490;54.208;37.686;2023-08-08T05:43:15;6.80;;;5.38;;
26634;SDS011;14490;54.208;37.686;2023-08-08T05:45:43;8.82;;;4.00;;
26634;SDS011;14490;54.208;37.686;2023-08-08T05:48:11;6.57;;;4.60;;
26634;SDS011;14490;54.208;37.686;2023-08-08T05:50:40;10.15;;;5.70;;
26634;SDS011;14490;54.208;37.686;2023-08-08T05:53:08;5.57;;;4.53;;
26634;SDS011;14490;54.208;37.686;2023-08-08T05:55:35;11.82;;;5.28;;
26634;SDS011;14490;54.208;37.686;2023-08-08T05:58:03;9.20;;;4.78;;
26634;SDS011;14490;54.208;37.686;2023-08-08T06:00:37;10.48;;;5.38;;
26634;SDS011;14490;54.208;37.686;2023-08-08T06:05:31;6.63;;;4.28;;
26634;SDS011;14490;54.208;37.686;2023-08-08T06:07:59;8.05;;;5.90;;
26634;SDS011;14490;54.208;37.686;2023-08-08T06:10:26;9.85;;;5.22;;
26634;SDS011;14490;54.208;37.686;2023-08-08T06:12:53;6.82;;;4.30;;
26634;SDS011;14490;54.208;37.686;2023-08-08T06:15:21;6.97;;;4.43;;
26634;SDS011;14490;54.208;37.686;2023-08-08T06:17:49;7.32;;;4.72;;
26634;SDS011;14490;54.208;37.686;2023-08-08T06:20:17;6.88;;;5.15;;
26634;SDS011;14490;54.208;37.686;2023-08-08T06:22:44;5.35;;;4.85;;
26634;SDS011;14490;54.208;37.686;2023-08-08T06:25:12;5.88;;;4.88;;
26634;SDS011;14490;54.208;37.686;2023-08-08T06:27:39;5.85;;;4.82;;
26634;SDS011;14490;54.208;37.686;2023-08-08T06:30:07;7.45;;;4.70;;
26634;SDS011;14490;54.208;37.686;2023-08-08T06:32:44;8.35;;;4.93;;
26634;SDS011;14490;54.208;37.686;2023-08-08T06:35:13;6.97;;;4.85;;
26634;SDS011;14490;54.208;37.686;2023-08-08T06:37:42;8.67;;;4.67;;
26634;SDS011;14490;54.208;37.686;2023-08-08T06:40:12;10.43;;;5.25;;
26634;SDS011;14490;54.208;37.686;2023-08-08T06:45:47;9.30;;;5.40;;
26634;SDS011;14490;54.208;37.686;2023-08-08T06:48:29;5.13;;;4.53;;
26634;SDS011;14490;54.208;37.686;2023-08-08T06:51:32;5.63;;;4.07;;
26634;SDS011;14490;54.208;37.686;2023-08-08T06:54:01;5.18;;;4.68;;
26634;SDS011;14490;54.208;37.686;2023-08-08T06:56:29;7.65;;;4.13;;
26634;SDS011;14490;54.208;37.686;2023-08-08T06:58:58;6.35;;;4.93;;
26634;SDS011;14490;54.208;37.686;2023-08-08T07:03:55;6.45;;;4.57;;
26634;SDS011;14490;54.208;37.686;2023-08-08T07:06:22;6.10;;;5.13;;
26634;SDS011;14490;54.208;37.686;2023-08-08T07:08:51;7.13;;;4.70;;
26634;SDS011;14490;54.208;37.686;2023-08-08T07:11:21;7.18;;;4.70;;
26634;SDS011;14490;54.208;37.686;2023-08-08T07:13:59;10.50;;;5.03;;
26634;SDS011;14490;54.208;37.686;2023-08-08T07:19:08;5.70;;;5.10;;
26634;SDS011;14490;54.208;37.686;2023-08-08T07:21:36;5.18;;;4.65;;
26634;SDS011;14490;54.208;37.686;2023-08-08T07:24:05;8.63;;;4.53;;
26634;SDS011;14490;54.208;37.686;2023-08-08T07:26:35;8.32;;;5.28;;
26634;SDS011;14490;54.208;37.686;2023-08-08T07:29:02;13.35;;;5.13;;
26634;SDS011;14490;54.208;37.686;2023-08-08T07:31:31;9.63;;;5.13;;
26634;SDS011;14490;54.208;37.686;2023-08-08T07:33:58;6.55;;;5.18;;
26634;SDS011;14490;54.208;37.686;2023-08-08T07:36:26;9.50;;;5.95;;
26634;SDS011;14490;54.208;37.686;2023-08-08T07:38:53;9.55;;;5.60;;
26634;SDS011;14490;54.208;37.686;2023-08-08T07:41:45;11.80;;;5.70;;
26634;SDS011;14490;54.208;37.686;2023-08-08T07:44:13;5.25;;;4.75;;
26634;SDS011;14490;54.208;37.686;2023-08-08T07:46:40;6.65;;;5.10;;
26634;SDS011;14490;54.208;37.686;2023-08-08T07:49:07;7.18;;;4.75;;
26634;SDS011;14490;54.208;37.686;2023-08-08T07:51:36;7.22;;;4.93;;
26634;SDS011;14490;54.208;37.686;2023-08-08T07:54:04;7.80;;;5.78;;
26634;SDS011;14490;54.208;37.686;2023-08-08T07:56:33;7.80;;;5.40;;
26634;SDS011;14490;54.208;37.686;2023-08-08T07:59:03;6.05;;;5.55;;
26634;SDS011;14490;54.208;37.686;2023-08-08T08:01:31;10.65;;;7.70;;
26634;SDS011;14490;54.208;37.686;2023-08-08T08:03:58;6.28;;;5.43;;
26634;SDS011;14490;54.208;37.686;2023-08-08T08:06:25;10.32;;;7.80;;
26634;SDS011;14490;54.208;37.686;2023-08-08T08:08:53;8.77;;;5.95;;
26634;SDS011;14490;54.208;37.686;2023-08-08T08:11:20;6.65;;;5.45;;
26634;SDS011;14490;54.208;37.686;2023-08-08T08:13:47;6.75;;;6.18;;
26634;SDS011;14490;54.208;37.686;2023-08-08T08:16:19;8.53;;;6.37;;
26634;SDS011;14490;54.208;37.686;2023-08-08T08:21:15;6.32;;;5.80;;
26634;SDS011;14490;54.208;37.686;2023-08-08T08:23:43;9.98;;;5.78;;
26634;SDS011;14490;54.208;37.686;2023-08-08T08:26:11;6.72;;;5.13;;
26634;SDS011;14490;54.208;37.686;2023-08-08T08:28:52;8.02;;;5.07;;
26634;SDS011;14490;54.208;37.686;2023-08-08T08:31:25;8.68;;;4.95;;
26634;SDS011;14490;54.208;37.686;2023-08-08T08:33:53;9.43;;;5.82;;
26634;SDS011;14490;54.208;37.686;2023-08-08T08:36:23;7.55;;;5.10;;
26634;SDS011;14490;54.208;37.686;2023-08-08T08:38:53;5.57;;;5.07;;
26634;SDS011;14490;54.208;37.686;2023-08-08T08:41:25;8.07;;;5.05;;
26634;SDS011;14490;54.208;37.686;2023-08-08T08:43:57;5.45;;;5.05;;
26634;SDS011;14490;54.208;37.686;2023-08-08T08:46:29;6.80;;;4.68;;
26634;SDS011;14490;54.208;37.686;2023-08-08T08:49:03;9.48;;;4.63;;
26634;SDS011;14490;54.208;37.686;2023-08-08T08:54:01;10.80;;;7.53;;
26634;SDS011;14490;54.208;37.686;2023-08-08T08:56:29;12.75;;;7.20;;
26634;SDS011;14490;54.208;37.686;2023-08-08T08:58:58;9.13;;;5.97;;
26634;SDS011;14490;54.208;37.686;2023-08-08T09:01:29;5.78;;;5.18;;
26634;SDS011;14490;54.208;37.686;2023-08-08T09:03:57;8.82;;;6.38;;
26634;SDS011;14490;54.208;37.686;2023-08-08T09:06:24;8.13;;;5.93;;
26634;SDS011;14490;54.208;37.686;2023-08-08T09:08:53;9.18;;;5.82;;
26634;SDS011;14490;54.208;37.686;2023-08-08T09:11:21;9.20;;;6.28;;
26634;SDS011;14490;54.208;37.686;2023-08-08T09:13:48;11.13;;;6.53;;
26634;SDS011;14490;54.208;37.686;2023-08-08T09:16:19;4.88;;;4.47;;
26634;SDS011;14490;54.208;37.686;2023-08-08T09:18:48;7.22;;;4.72;;
26634;SDS011;14490;54.208;37.686;2023-08-08T09:21:15;4.63;;;4.20;;
26634;SDS011;14490;54.208;37.686;2023-08-08T09:23:45;6.15;;;5.22;;
26634;SDS011;14490;54.208;37.686;2023-08-08T09:26:14;5.28;;;4.53;;
26634;SDS011;14490;54.208;37.686;2023-08-08T09:28:42;4.85;;;4.22;;
26634;SDS011;14490;54.208;37.686;2023-08-08T09:31:09;6.22;;;4.32;;
26634;SDS011;14490;54.208;37.686;2023-08-08T09:33:41;4.53;;;4.13;;
26634;SDS011;14490;54.208;37.686;2023-08-08T09:36:15;4.95;;;4.43;;
26634;SDS011;14490;54.208;37.686;2023-08-08T09:38:42;6.60;;;4.10;;
26634;SDS011;14490;54.208;37.686;2023-08-08T09:41:10;7.70;;;3.90;;
26634;SDS011;14490;54.208;37.686;2023-08-08T09:43:39;7.30;;;4.45;;
26634;SDS011;14490;54.208;37.686;2023-08-08T09:46:13;4.28;;;3.80;;
26634;SDS011;14490;54.208;37.686;2023-08-08T09:52:51;6.65;;;3.40;;
26634;SDS011;14490;54.208;37.686;2023-08-08T09:55:49;7.85;;;3.60;;
26634;SDS011;14490;54.208;37.686;2023-08-08T09:58:25;4.22;;;3.35;;
26634;SDS011;14490;54.208;37.686;2023-08-08T10:00:55;7.13;;;3.17;;
26634;SDS011;14490;54.208;37.686;2023-08-08T10:03:30;4.03;;;3.63;;
26634;SDS011;14490;54.208;37.686;2023-08-08T10:05:59;5.97;;;3.20;;
26634;SDS011;14490;54.208;37.686;2023-08-08T10:08:29;3.22;;;2.92;;
26634;SDS011;14490;54.208;37.686;2023-08-08T10:11:01;4.72;;;3.30;;
26634;SDS011;14490;54.208;37.686;2023-08-08T10:13:37;5.25;;;3.33;;
26634;SDS011;14490;54.208;37.686;2023-08-08T10:16:32;6.28;;;3.10;;
26634;SDS011;14490;54.208;37.686;2023-08-08T10:19:01;3.65;;;2.70;;
26634;SDS011;14490;54.208;37.686;2023-08-08T10:21:33;2.97;;;2.78;;
26634;SDS011;14490;54.208;37.686;2023-08-08T10:24:12;6.18;;;2.50;;
26634;SDS011;14490;54.208;37.686;2023-08-08T10:26:53;3.50;;;1.95;;
26634;SDS011;14490;54.208;37.686;2023-08-08T10:29:32;3.22;;;2.55;;
26634;SDS011;14490;54.208;37.686;2023-08-08T10:32:05;4.18;;;2.03;;
26634;SDS011;14490;54.208;37.686;2023-08-08T10:34:37;2.63;;;2.15;;
26634;SDS011;14490;54.208;37.686;2023-08-08T10:37:11;3.85;;;2.13;;
26634;SDS011;14490;54.208;37.686;2023-08-08T10:39:51;2.30;;;2.17;;
26634;SDS011;14490;54.208;37.686;2023-08-08T10:42:19;5.35;;;2.00;;
26634;SDS011;14490;54.208;37.686;2023-08-08T10:45:08;2.92;;;2.53;;
26634;SDS011;14490;54.208;37.686;2023-08-08T10:48:09;3.72;;;2.10;;
26634;SDS011;14490;54.208;37.686;2023-08-08T10:50:38;4.47;;;2.30;;
26634;SDS011;14490;54.208;37.686;2023-08-08T10:53:08;3.25;;;2.63;;
26634;SDS011;14490;54.208;37.686;2023-08-08T10:55:38;2.33;;;2.10;;
26634;SDS011;14490;54.208;37.686;2023-08-08T10:58:06;2.40;;;1.50;;
26634;SDS011;14490;54.208;37.686;2023-08-08T11:00:35;1.98;;;1.83;;
26634;SDS011;14490;54.208;37.686;2023-08-08T11:03:05;2.78;;;2.50;;
26634;SDS011;14490;54.208;37.686;2023-08-08T11:05:36;4.68;;;2.97;;
26634;SDS011;14490;54.208;37.686;2023-08-08T11:08:05;4.85;;;2.95;;
26634;SDS011;14490;54.208;37.686;2023-08-08T11:10:34;4.28;;;3.20;;
26634;SDS011;14490;54.208;37.686;2023-08-08T11:13:04;3.85;;;3.55;;
26634;SDS011;14490;54.208;37.686;2023-08-08T11:18:01;3.78;;;2.47;;
26634;SDS011;14490;54.208;37.686;2023-08-08T11:20:29;3.90;;;2.17;;
26634;SDS011;14490;54.208;37.686;2023-08-08T11:23:00;3.05;;;2.65;;
26634;SDS011;14490;54.208;37.686;2023-08-08T11:28:33;4.68;;;2.63;;
26634;SDS011;14490;54.208;37.686;2023-08-08T11:31:08;5.88;;;2.67;;
26634;SDS011;14490;54.208;37.686;2023-08-08T11:33:56;3.22;;;2.35;;
26634;SDS011;14490;54.208;37.686;2023-08-08T11:36:47;1.80;;;1.70;;
26634;SDS011;14490;54.208;37.686;2023-08-08T11:39:24;4.88;;;1.77;;
26634;SDS011;14490;54.208;37.686;2023-08-08T11:42:21;9.45;;;2.13;;
26634;SDS011;14490;54.208;37.686;2023-08-08T11:44:49;5.40;;;2.42;;
26634;SDS011;14490;54.208;37.686;2023-08-08T11:47:24;5.45;;;1.65;;
26634;SDS011;14490;54.208;37.686;2023-08-08T11:49:56;2.90;;;1.50;;
26634;SDS011;14490;54.208;37.686;2023-08-08T11:52:24;2.50;;;1.52;;
26634;SDS011;14490;54.208;37.686;2023-08-08T11:54:58;3.15;;;1.70;;
26634;SDS011;14490;54.208;37.686;2023-08-08T11:57:26;2.35;;;1.50;;
26634;SDS011;14490;54.208;37.686;2023-08-08T11:59:56;2.35;;;1.10;;
26634;SDS011;14490;54.208;37.686;2023-08-08T12:02:25;3.72;;;1.40;;
26634;SDS011;14490;54.208;37.686;2023-08-08T12:04:54;7.30;;;2.03;;
26634;SDS011;14490;54.208;37.686;2023-08-08T12:07:22;2.72;;;1.67;;
26634;SDS011;14490;54.208;37.686;2023-08-08T12:09:49;4.78;;;1.80;;
26634;SDS011;14490;54.208;37.686;2023-08-08T12:12:19;2.75;;;1.60;;
26634;SDS011;14490;54.208;37.686;2023-08-08T12:14:47;3.55;;;1.65;;
26634;SDS011;14490;54.208;37.686;2023-08-08T12:17:16;7.00;;;1.50;;
26634;SDS011;14490;54.208;37.686;2023-08-08T12:19:44;4.10;;;1.48;;
26634;SDS011;14490;54.208;37.686;2023-08-08T12:22:13;1.37;;;1.13;;
26634;SDS011;14490;54.208;37.686;2023-08-08T12:24:42;3.08;;;1.50;;
26634;SDS011;14490;54.208;37.686;2023-08-08T12:27:10;2.45;;;1.77;;
26634;SDS011;14490;54.208;37.686;2023-08-08T12:29:55;1.45;;;1.15;;
26634;SDS011;14490;54.208;37.686;2023-08-08T12:32:32;1.58;;;1.00;;
26634;SDS011;14490;54.208;37.686;2023-08-08T12:34:59;1.20;;;1.00;;
26634;SDS011;14490;54.208;37.686;2023-08-08T12:37:26;2.25;;;1.25;;
26634;SDS011;14490;54.208;37.686;2023-08-08T12:40:11;4.45;;;1.67;;
26634;SDS011;14490;54.208;37.686;2023-08-08T12:42:58;1.17;;;0.95;;
26634;SDS011;14490;54.208;37.686;2023-08-08T12:45:26;3.63;;;1.10;;
26634;SDS011;14490;54.208;37.686;2023-08-08T12:48:01;1.30;;;1.08;;
26634;SDS011;14490;54.208;37.686;2023-08-08T12:50:29;5.57;;;2.00;;
26634;SDS011;14490;54.208;37.686;2023-08-08T12:52:57;2.28;;;1.50;;
26634;SDS011;14490;54.208;37.686;2023-08-08T12:55:27;1.75;;;1.55;;
26634;SDS011;14490;54.208;37.686;2023-08-08T12:57:57;2.30;;;2.10;;
26634;SDS011;14490;54.208;37.686;2023-08-08T13:00:38;3.70;;;1.63;;
26634;SDS011;14490;54.208;37.686;2023-08-08T13:03:07;1.70;;;1.55;;
26634;SDS011;14490;54.208;37.686;2023-08-08T13:05:37;2.40;;;2.15;;
26634;SDS011;14490;54.208;37.686;2023-08-08T13:08:04;2.65;;;1.65;;
26634;SDS011;14490;54.208;37.686;2023-08-08T13:10:32;1.95;;;1.75;;
26634;SDS011;14490;54.208;37.686;2023-08-08T13:13:00;3.83;;;1.88;;
26634;SDS011;14490;54.208;37.686;2023-08-08T13:15:27;3.13;;;1.90;;
26634;SDS011;14490;54.208;37.686;2023-08-08T13:17:58;3.10;;;1.90;;
26634;SDS011;14490;54.208;37.686;2023-08-08T13:23:23;2.60;;;1.70;;
26634;SDS011;14490;54.208;37.686;2023-08-08T13:25:52;4.03;;;2.22;;
26634;SDS011;14490;54.208;37.686;2023-08-08T13:28:21;4.25;;;1.92;;
26634;SDS011;14490;54.208;37.686;2023-08-08T13:30:48;2.17;;;1.40;;
26634;SDS011;14490;54.208;37.686;2023-08-08T13:33:18;1.88;;;1.58;;
26634;SDS011;14490;54.208;37.686;2023-08-08T13:35:53;6.65;;;1.60;;
26634;SDS011;14490;54.208;37.686;2023-08-08T13:38:21;2.17;;;1.20;;
26634;SDS011;14490;54.208;37.686;2023-08-08T13:40:49;4.10;;;1.10;;
26634;SDS011;14490;54.208;37.686;2023-08-08T13:43:18;1.60;;;1.50;;
26634;SDS011;14490;54.208;37.686;2023-08-08T13:45:47;1.88;;;0.88;;
26634;SDS011;14490;54.208;37.686;2023-08-08T13:48:15;1.80;;;0.93;;
26634;SDS011;14490;54.208;37.686;2023-08-08T13:50:56;3.55;;;0.80;;
26634;SDS011;14490;54.208;37.686;2023-08-08T13:53:25;0.93;;;0.90;;
26634;SDS011;14490;54.208;37.686;2023-08-08T13:55:54;0.70;;;0.70;;
26634;SDS011;14490;54.208;37.686;2023-08-08T13:58:36;1.35;;;1.05;;
26634;SDS011;14490;54.208;37.686;2023-08-08T14:01:05;1.42;;;1.10;;
26634;SDS011;14490;54.208;37.686;2023-08-08T14:03:35;2.22;;;0.90;;
26634;SDS011;14490;54.208;37.686;2023-08-08T14:06:06;1.95;;;1.08;;
26634;SDS011;14490;54.208;37.686;2023-08-08T14:08:54;1.07;;;0.97;;
26634;SDS011;14490;54.208;37.686;2023-08-08T14:14:04;0.60;;;0.60;;
26634;SDS011;14490;54.208;37.686;2023-08-08T14:16:31;2.45;;;1.67;;
26634;SDS011;14490;54.208;37.686;2023-08-08T14:18:59;1.30;;;0.90;;
26634;SDS011;14490;54.208;37.686;2023-08-08T14:21:28;4.75;;;2.17;;
26634;SDS011;14490;54.208;37.686;2023-08-08T14:23:55;2.08;;;0.95;;
26634;SDS011;14490;54.208;37.686;2023-08-08T14:26:23;1.60;;;0.90;;
26634;SDS011;14490;54.208;37.686;2023-08-08T14:28:51;4.30;;;1.17;;
26634;SDS011;14490;54.208;37.686;2023-08-08T14:31:19;2.55;;;1.20;;
26634;SDS011;14490;54.208;37.686;2023-08-08T14:33:49;1.30;;;1.20;;
26634;SDS011;14490;54.208;37.686;2023-08-08T14:39:34;2.78;;;0.95;;
26634;SDS011;14490;54.208;37.686;2023-08-08T14:42:43;1.27;;;1.10;;
26634;SDS011;14490;54.208;37.686;2023-08-08T14:44:59;1.60;;;1.27;;
26634;SDS011;14490;54.208;37.686;2023-08-08T14:47:28;2.78;;;1.30;;
26634;SDS011;14490;54.208;37.686;2023-08-08T14:49:56;4.60;;;1.00;;
26634;SDS011;14490;54.208;37.686;2023-08-08T14:52:26;1.75;;;1.15;;
26634;SDS011;14490;54.208;37.686;2023-08-08T14:54:54;1.00;;;0.80;;
26634;SDS011;14490;54.208;37.686;2023-08-08T14:57:31;1.90;;;1.00;;
26634;SDS011;14490;54.208;37.686;2023-08-08T15:00:00;2.03;;;0.80;;
26634;SDS011;14490;54.208;37.686;2023-08-08T15:02:32;4.30;;;1.25;;
26634;SDS011;14490;54.208;37.686;2023-08-08T15:05:00;2.65;;;0.95;;
26634;SDS011;14490;54.208;37.686;2023-08-08T15:07:38;1.35;;;1.10;;
26634;SDS011;14490;54.208;37.686;2023-08-08T15:10:10;2.83;;;0.82;;
26634;SDS011;14490;54.208;37.686;2023-08-08T15:12:42;3.13;;;1.08;;
26634;SDS011;14490;54.208;37.686;2023-08-08T15:15:34;2.33;;;1.17;;
26634;SDS011;14490;54.208;37.686;2023-08-08T15:18:21;2.90;;;0.85;;
26634;SDS011;14490;54.208;37.686;2023-08-08T15:20:52;2.30;;;0.70;;
26634;SDS011;14490;54.208;37.686;2023-08-08T15:26:53;2.88;;;0.60;;
26634;SDS011;14490;54.208;37.686;2023-08-08T15:29:37;0.80;;;0.80;;